createdAt,value
2023-03-01T00:01:15.557Z,100216.59
2023-03-01T00:03:43.629Z,100214.78
2023-03-01T00:06:10.771Z,100216.34
2023-03-01T00:08:38.160Z,100206.50
2023-03-01T00:11:21.649Z,100203.25
2023-03-01T00:13:50.747Z,100203.25
2023-03-01T00:16:20.690Z,100208.97
2023-03-01T00:18:47.895Z,100209.53
2023-03-01T00:21:15.329Z,100205.38
2023-03-01T00:23:42.661Z,100196.94
2023-03-01T00:26:13.821Z,100183.81
2023-03-01T00:28:41.648Z,100199.97
2023-03-01T00:31:11.832Z,100195.31
2023-03-01T00:33:39.326Z,100192.97
2023-03-01T00:36:06.908Z,100197.31
2023-03-01T00:38:42.130Z,100175.34
2023-03-01T00:41:11.484Z,100201.16
2023-03-01T00:43:39.006Z,100201.72
2023-03-01T00:46:08.885Z,100188.28
2023-03-01T00:48:36.303Z,100198.97
2023-03-01T00:51:19.264Z,100200.91
2023-03-01T00:53:47.223Z,100201.16
2023-03-01T00:56:15.632Z,100203.44
2023-03-01T00:58:43.999Z,100195.97
2023-03-01T01:01:19.194Z,100190.59
2023-03-01T01:03:52.598Z,100187.25
2023-03-01T01:06:40.384Z,100182.59
2023-03-01T01:09:08.341Z,100189.72
2023-03-01T01:11:37.321Z,100190.50
2023-03-01T01:14:04.500Z,100167.47
2023-03-01T01:16:31.911Z,100194.88
2023-03-01T01:18:59.212Z,100180.19
2023-03-01T01:21:28.075Z,100176.88
2023-03-01T01:23:55.443Z,100166.22
2023-03-01T01:26:25.980Z,100181.03
2023-03-01T01:28:53.966Z,100169.28
2023-03-01T01:31:21.328Z,100165.22
2023-03-01T01:33:48.329Z,100164.16
2023-03-01T01:36:15.144Z,100155.13
2023-03-01T01:38:43.661Z,100154.28
2023-03-01T01:41:12.580Z,100133.50
2023-03-01T01:43:45.721Z,100143.91
2023-03-01T01:46:29.961Z,100132.97
2023-03-01T01:49:04.909Z,100134.59
2023-03-01T01:51:41.439Z,100135.16
2023-03-01T01:54:17.486Z,100123.97
2023-03-01T01:56:52.689Z,100118.97
2023-03-01T01:59:19.934Z,100112.06
2023-03-01T02:01:46.747Z,100100.78
2023-03-01T02:04:13.695Z,100114.25
2023-03-01T02:06:55.341Z,100108.81
2023-03-01T02:09:24.110Z,100108.56
2023-03-01T02:11:52.444Z,100110.22
2023-03-01T02:14:19.657Z,100109.53
2023-03-01T02:16:47.086Z,100126.25
2023-03-01T02:19:42.481Z,100124.59
2023-03-01T02:22:12.806Z,100137.19
2023-03-01T02:24:58.571Z,100145.16
2023-03-01T02:27:32.016Z,100148.66
2023-03-01T02:29:59.103Z,100144.31
2023-03-01T02:32:26.433Z,100144.88
2023-03-01T02:34:56.643Z,100139.41
2023-03-01T02:37:26.014Z,100133.97
2023-03-01T02:40:03.898Z,100134.00
2023-03-01T02:42:42.433Z,100145.47
2023-03-01T02:45:11.202Z,100146.47
2023-03-01T02:47:38.014Z,100144.53
2023-03-01T02:50:32.632Z,100133.88
2023-03-01T02:53:12.361Z,100136.66
2023-03-01T02:55:39.680Z,100128.41
2023-03-01T02:58:06.785Z,100125.97
2023-03-01T03:00:41.207Z,100132.06
2023-03-01T03:03:08.858Z,100121.69
2023-03-01T03:05:35.624Z,100134.47
2023-03-01T03:08:04.695Z,100129.81
2023-03-01T03:10:40.590Z,100124.94
2023-03-01T03:13:13.705Z,100128.19
2023-03-01T03:15:43.104Z,100128.22
2023-03-01T03:18:13.280Z,100115.34
2023-03-01T03:20:42.914Z,100119.16
2023-03-01T03:23:10.204Z,100121.91
2023-03-01T03:25:38.857Z,100124.06
2023-03-01T03:28:10.709Z,100128.41
2023-03-01T03:30:41.989Z,100124.31
2023-03-01T03:33:13.107Z,100115.91
2023-03-01T03:35:44.537Z,100123.25
2023-03-01T03:38:17.070Z,100108.75
2023-03-01T03:40:45.276Z,100115.31
2023-03-01T03:43:16.123Z,100110.81
2023-03-01T03:45:45.984Z,100128.88
2023-03-01T03:48:14.527Z,100125.56
2023-03-01T03:50:42.534Z,100127.88
2023-03-01T03:53:13.094Z,100116.94
2023-03-01T03:55:40.591Z,100119.00
2023-03-01T03:58:10.713Z,100118.91
2023-03-01T04:00:45.690Z,100124.97
2023-03-01T04:03:14.565Z,100066.00
2023-03-01T04:05:42.043Z,100111.50
2023-03-01T04:08:10.062Z,100137.41
2023-03-01T04:10:41.255Z,100129.31
2023-03-01T04:13:13.917Z,100134.84
2023-03-01T04:15:41.665Z,100131.34
2023-03-01T04:18:12.102Z,100126.00
2023-03-01T04:20:40.092Z,100120.03
2023-03-01T04:23:14.570Z,100128.72
2023-03-01T04:25:42.362Z,100116.16
2023-03-01T04:28:10.479Z,100124.81
2023-03-01T04:30:39.806Z,100129.44
2023-03-01T04:33:08.493Z,100126.72
2023-03-01T04:35:36.739Z,100126.44
2023-03-01T04:38:04.661Z,100132.16
2023-03-01T04:40:31.685Z,100123.41
2023-03-01T04:42:58.595Z,100119.34
2023-03-01T04:45:25.688Z,100142.69
2023-03-01T04:47:55.291Z,100129.22
2023-03-01T04:50:22.717Z,100136.31
2023-03-01T04:52:49.523Z,100144.94
2023-03-01T04:55:17.025Z,100150.91
2023-03-01T04:57:43.870Z,100145.72
2023-03-01T05:00:21.467Z,100116.19
2023-03-01T05:02:50.280Z,100139.19
2023-03-01T05:05:17.285Z,100132.63
2023-03-01T05:07:44.356Z,100136.41
2023-03-01T05:10:11.374Z,100131.94
2023-03-01T05:12:38.465Z,100124.88
2023-03-01T05:15:08.343Z,100130.91
2023-03-01T05:17:35.472Z,100132.59
2023-03-01T05:20:02.344Z,100121.81
2023-03-01T05:22:29.611Z,100124.84
2023-03-01T05:24:56.703Z,100136.09
2023-03-01T05:27:23.584Z,100103.28
2023-03-01T05:29:50.768Z,100134.50
2023-03-01T05:32:17.650Z,100137.75
2023-03-01T05:34:45.172Z,100108.22
2023-03-01T05:37:12.330Z,100130.72
2023-03-01T05:39:39.112Z,100126.69
2023-03-01T05:42:06.492Z,100131.09
2023-03-01T05:44:33.407Z,100120.41
2023-03-01T05:47:00.579Z,100128.03
2023-03-01T05:49:27.368Z,100129.72
2023-03-01T05:51:54.862Z,100139.25
2023-03-01T05:54:23.031Z,100137.09
2023-03-01T05:56:50.045Z,100130.50
2023-03-01T05:59:17.478Z,100131.69
2023-03-01T06:01:44.757Z,100093.88
2023-03-01T06:04:11.867Z,100134.13
2023-03-01T06:06:39.532Z,100118.00
2023-03-01T06:09:08.432Z,100128.72
2023-03-01T06:11:36.681Z,100120.19
2023-03-01T06:14:04.647Z,100111.09
2023-03-01T06:16:32.269Z,100129.38
2023-03-01T06:18:59.199Z,100118.25
2023-03-01T06:21:26.214Z,100118.28
2023-03-01T06:23:53.245Z,100105.97
2023-03-01T06:26:20.507Z,100117.75
2023-03-01T06:28:47.306Z,100120.25
2023-03-01T06:31:14.554Z,100099.41
2023-03-01T06:33:41.423Z,100129.97
2023-03-01T06:36:09.303Z,100126.47
2023-03-01T06:38:36.241Z,100133.38
2023-03-01T06:41:03.295Z,100133.88
2023-03-01T06:43:30.230Z,100129.47
2023-03-01T06:45:57.394Z,100128.22
2023-03-01T06:48:24.216Z,100131.97
2023-03-01T06:50:51.162Z,100128.44
2023-03-01T06:53:18.043Z,100110.16
2023-03-01T06:55:45.051Z,100126.59
2023-03-01T06:58:12.405Z,100107.66
2023-03-01T07:00:41.725Z,100136.44
2023-03-01T07:03:09.668Z,100145.53
2023-03-01T07:05:36.920Z,100130.50
2023-03-01T07:08:04.394Z,100139.53
2023-03-01T07:10:31.144Z,100145.44
2023-03-01T07:12:59.383Z,100139.44
2023-03-01T07:15:27.884Z,100146.25
2023-03-01T07:17:55.257Z,100151.47
2023-03-01T07:20:26.638Z,100127.91
2023-03-01T07:22:55.252Z,100149.91
2023-03-01T07:25:22.138Z,100152.03
2023-03-01T07:27:53.514Z,100156.81
2023-03-01T07:30:21.573Z,100160.91
2023-03-01T07:32:48.762Z,100157.59
2023-03-01T07:35:16.032Z,100165.03
2023-03-01T07:37:43.059Z,100164.75
2023-03-01T07:40:11.243Z,100164.97
2023-03-01T07:42:38.313Z,100155.16
2023-03-01T07:45:06.828Z,100171.53
2023-03-01T07:47:33.817Z,100149.31
2023-03-01T07:50:02.409Z,100154.19
2023-03-01T07:52:30.025Z,100166.84
2023-03-01T07:54:57.063Z,100166.03
2023-03-01T07:57:24.699Z,100158.69
2023-03-01T07:59:51.696Z,100172.03
2023-03-01T08:02:18.494Z,100166.28
2023-03-01T08:04:45.733Z,100170.94
2023-03-01T08:07:12.644Z,100135.34
2023-03-01T08:09:39.634Z,100116.75
2023-03-01T08:12:07.102Z,100161.22
2023-03-01T08:14:34.143Z,100158.19
2023-03-01T08:17:01.210Z,100154.63
2023-03-01T08:19:29.365Z,100119.13
2023-03-01T08:21:59.188Z,100159.19
2023-03-01T08:24:26.600Z,100127.50
2023-03-01T08:26:53.695Z,100151.69
2023-03-01T08:29:21.260Z,100145.91
2023-03-01T08:31:48.842Z,100138.28
2023-03-01T08:34:18.469Z,100149.53
2023-03-01T08:36:47.373Z,100132.34
2023-03-01T08:39:17.362Z,100142.50
2023-03-01T08:41:46.435Z,100147.47
2023-03-01T08:44:17.684Z,100156.16
2023-03-01T08:46:46.762Z,100152.84
2023-03-01T08:49:17.321Z,100156.72
2023-03-01T08:51:45.799Z,100124.66
2023-03-01T08:54:22.150Z,100137.28
2023-03-01T08:56:50.023Z,100153.50
2023-03-01T08:59:18.369Z,100148.56
2023-03-01T09:01:45.765Z,100154.31
2023-03-01T09:04:13.720Z,100141.72
2023-03-01T09:06:40.770Z,100111.31
2023-03-01T09:09:13.053Z,100131.56
2023-03-01T09:11:40.348Z,100155.44
2023-03-01T09:14:08.149Z,100150.72
2023-03-01T09:16:37.170Z,100148.28
2023-03-01T09:19:04.486Z,100106.41
2023-03-01T09:21:40.158Z,100148.03
2023-03-01T09:24:15.787Z,100152.38
2023-03-01T09:26:43.704Z,100139.28
2023-03-01T09:29:10.864Z,100132.13
2023-03-01T09:31:38.217Z,100123.91
2023-03-01T09:34:06.563Z,100128.84
2023-03-01T09:36:34.658Z,100134.63
2023-03-01T09:39:02.391Z,100125.59
2023-03-01T09:41:48.119Z,100140.38
2023-03-01T09:44:35.577Z,100139.28
2023-03-01T09:47:03.456Z,100136.00
2023-03-01T09:49:34.466Z,100140.41
2023-03-01T09:52:01.441Z,100127.28
2023-03-01T09:54:28.710Z,100135.47
2023-03-01T09:57:16.011Z,100125.38
2023-03-01T09:59:52.153Z,100124.00
2023-03-01T10:02:33.999Z,100116.06
2023-03-01T10:05:28.582Z,100127.28
2023-03-01T10:08:21.100Z,100125.94
2023-03-01T10:10:48.864Z,100099.91
2023-03-01T10:13:44.747Z,100129.22
2023-03-01T10:16:17.994Z,100099.94
2023-03-01T10:18:48.712Z,100105.41
2023-03-01T10:21:19.852Z,100106.78
2023-03-01T10:23:50.950Z,100097.19
2023-03-01T10:26:26.680Z,100098.56
2023-03-01T10:29:00.164Z,100098.84
2023-03-01T10:31:53.467Z,100093.38
2023-03-01T10:34:30.521Z,100093.94
2023-03-01T10:37:11.584Z,100090.63
2023-03-01T10:39:55.468Z,100079.69
2023-03-01T10:42:35.047Z,100069.28
2023-03-01T10:45:20.503Z,100080.25
2023-03-01T10:47:47.737Z,100079.69
2023-03-01T10:50:24.540Z,100071.75
2023-03-01T10:53:04.227Z,100060.53
2023-03-01T10:55:37.238Z,100047.41
2023-03-01T10:58:10.697Z,100018.66
2023-03-01T11:00:48.868Z,100034.00
2023-03-01T11:03:21.846Z,100041.94
2023-03-01T11:05:54.096Z,100042.94
2023-03-01T11:08:35.336Z,100047.63
2023-03-01T11:11:06.503Z,100049.78
2023-03-01T11:13:33.750Z,100049.81
2023-03-01T11:16:04.225Z,100039.66
2023-03-01T11:18:46.408Z,100044.63
2023-03-01T11:21:16.765Z,100039.47
2023-03-01T11:23:47.756Z,100032.28
2023-03-01T11:26:18.567Z,100030.88
2023-03-01T11:28:51.455Z,100016.09
2023-03-01T11:31:20.325Z,100022.41
2023-03-01T11:34:17.683Z,100028.13
2023-03-01T11:36:57.707Z,100025.13
2023-03-01T11:40:01.115Z,100023.22
2023-03-01T11:42:55.545Z,100001.31
2023-03-01T11:45:26.416Z,100024.31
2023-03-01T11:47:56.575Z,100015.00
2023-03-01T11:50:36.072Z,100015.56
2023-03-01T11:53:13.103Z,100005.22
2023-03-01T11:56:00.844Z,100007.69
2023-03-01T11:58:54.058Z,100008.78
2023-03-01T12:01:38.015Z,100017.28
2023-03-01T12:04:15.575Z,100017.56
2023-03-01T12:06:48.797Z,100004.69
2023-03-01T12:09:21.823Z,100022.50
2023-03-01T12:11:55.075Z,100010.19
2023-03-01T12:14:32.139Z,100008.53
2023-03-01T12:17:09.176Z,99986.38
2023-03-01T12:19:58.764Z,100005.25
2023-03-01T12:23:19.362Z,100000.88
2023-03-01T12:25:53.941Z,100009.91
2023-03-01T12:28:48.437Z,99975.44
2023-03-01T12:31:40.010Z,100003.88
2023-03-01T12:34:43.471Z,99995.13
2023-03-01T12:37:45.056Z,99996.22
2023-03-01T12:40:15.054Z,99992.09
2023-03-01T12:42:53.048Z,99981.72
2023-03-01T12:45:49.420Z,99981.97
2023-03-01T12:48:22.651Z,99984.97
2023-03-01T12:50:55.357Z,99985.81
2023-03-01T12:53:30.211Z,99979.78
2023-03-01T12:56:07.873Z,99960.94
2023-03-01T12:59:00.933Z,99985.25
2023-03-01T13:01:41.156Z,99954.66
2023-03-01T13:04:26.415Z,99990.50
2023-03-01T13:07:23.666Z,99987.22
2023-03-01T13:10:02.695Z,99982.28
2023-03-01T13:12:48.702Z,99975.44
2023-03-01T13:15:24.351Z,99978.44
2023-03-01T13:17:54.254Z,99962.84
2023-03-01T13:20:44.025Z,99985.00
2023-03-01T13:23:14.421Z,99987.50
2023-03-01T13:26:18.213Z,99974.63
2023-03-01T13:28:45.431Z,99983.94
2023-03-01T13:31:32.345Z,99975.19
2023-03-01T13:34:08.404Z,99955.47
2023-03-01T13:36:37.235Z,99969.69
2023-03-01T13:39:27.443Z,99966.13
2023-03-01T13:41:56.817Z,99967.50
2023-03-01T13:44:39.729Z,99976.53
2023-03-01T13:47:07.048Z,99967.78
2023-03-01T13:50:03.725Z,99976.28
2023-03-01T13:52:41.601Z,99884.97
2023-03-01T13:55:14.772Z,99967.53
2023-03-01T13:57:45.686Z,99962.06
2023-03-01T14:00:40.212Z,99963.69
2023-03-01T14:03:15.905Z,99950.56
2023-03-01T14:06:11.251Z,99940.44
2023-03-01T14:08:43.261Z,99967.50
2023-03-01T14:11:47.653Z,99965.34
2023-03-01T14:14:23.482Z,99966.69
2023-03-01T14:17:05.757Z,99959.84
2023-03-01T14:19:34.674Z,99954.94
2023-03-01T14:22:23.544Z,99964.50
2023-03-01T14:24:55.462Z,99943.47
2023-03-01T14:27:24.453Z,99934.16
2023-03-01T14:30:01.163Z,99963.13
2023-03-01T14:32:30.998Z,99968.06
2023-03-01T14:35:00.517Z,99962.31
2023-03-01T14:37:35.685Z,99949.47
2023-03-01T14:40:05.295Z,99950.56
2023-03-01T14:42:37.338Z,99950.03
2023-03-01T14:45:15.748Z,99949.19
2023-03-01T14:47:45.501Z,99947.28
2023-03-01T14:50:18.894Z,99948.91
2023-03-01T14:52:49.713Z,99948.38
2023-03-01T14:55:27.106Z,99948.09
2023-03-01T14:57:54.305Z,99935.00
2023-03-01T15:00:24.685Z,99953.84
2023-03-01T15:02:54.421Z,99948.09
2023-03-01T15:05:34.835Z,99947.03
2023-03-01T15:08:04.795Z,99953.84
2023-03-01T15:10:34.905Z,99950.03
2023-03-01T15:13:23.558Z,99940.19
2023-03-01T15:15:53.146Z,99928.44
2023-03-01T15:18:28.817Z,99951.97
2023-03-01T15:20:56.899Z,99932.81
2023-03-01T15:23:28.288Z,99953.31
2023-03-01T15:25:59.633Z,99955.75
2023-03-01T15:28:34.826Z,99950.03
2023-03-01T15:31:23.631Z,99944.00
2023-03-01T15:33:51.578Z,99954.13
2023-03-01T15:36:50.977Z,99955.53
2023-03-01T15:39:44.532Z,99950.59
2023-03-01T15:42:29.878Z,99949.78
2023-03-01T15:45:17.001Z,99962.06
2023-03-01T15:47:59.575Z,99955.53
2023-03-01T15:50:31.224Z,99962.09
2023-03-01T15:53:00.608Z,99960.41
2023-03-01T15:55:34.261Z,99956.63
2023-03-01T15:58:15.290Z,99961.25
2023-03-01T16:00:57.997Z,99962.63
2023-03-01T16:03:26.592Z,99963.19
2023-03-01T16:05:53.449Z,99963.69
2023-03-01T16:08:21.338Z,99962.09
2023-03-01T16:10:51.035Z,99968.38
2023-03-01T16:13:18.808Z,99948.94
2023-03-01T16:15:46.247Z,99953.88
2023-03-01T16:18:13.235Z,99969.75
2023-03-01T16:20:41.129Z,99967.28
2023-03-01T16:23:09.863Z,99973.28
2023-03-01T16:25:37.342Z,99973.00
2023-03-01T16:28:10.001Z,99986.16
2023-03-01T16:30:39.211Z,99986.13
2023-03-01T16:33:23.029Z,99989.97
2023-03-01T16:35:52.244Z,99983.13
2023-03-01T16:38:19.067Z,99968.63
2023-03-01T16:40:51.853Z,99983.94
2023-03-01T16:43:18.835Z,99987.50
2023-03-01T16:45:46.476Z,99990.50
2023-03-01T16:48:14.020Z,99971.09
2023-03-01T16:50:41.284Z,99998.72
2023-03-01T16:53:08.276Z,100007.75
2023-03-01T16:55:35.444Z,99992.13
2023-03-01T16:58:02.804Z,99989.41
2023-03-01T17:00:29.898Z,99974.06
2023-03-01T17:02:56.979Z,100008.28
2023-03-01T17:05:25.008Z,100002.78
2023-03-01T17:07:52.192Z,100015.09
2023-03-01T17:10:19.133Z,100006.34
2023-03-01T17:12:49.538Z,99995.66
2023-03-01T17:15:16.571Z,100014.56
2023-03-01T17:17:43.476Z,99986.09
2023-03-01T17:20:12.530Z,100007.47
2023-03-01T17:22:39.354Z,99982.31
2023-03-01T17:25:10.366Z,99989.16
2023-03-01T17:27:37.961Z,99985.03
2023-03-01T17:30:07.581Z,99976.81
2023-03-01T17:32:34.896Z,99942.31
2023-03-01T17:35:01.754Z,99985.56
2023-03-01T17:37:28.701Z,99991.56
2023-03-01T17:39:55.722Z,99988.28
2023-03-01T17:42:22.605Z,99986.66
2023-03-01T17:44:49.503Z,99989.38
2023-03-01T17:47:16.649Z,99942.88
2023-03-01T17:49:43.373Z,99982.84
2023-03-01T17:52:10.208Z,99982.25
2023-03-01T17:54:37.016Z,99977.84
2023-03-01T17:57:04.044Z,99986.88
2023-03-01T17:59:31.343Z,99963.66
2023-03-01T18:02:01.902Z,99978.97
2023-03-01T18:04:29.700Z,99991.28
2023-03-01T18:06:56.574Z,99960.38
2023-03-01T18:09:23.878Z,99988.28
2023-03-01T18:11:50.694Z,99981.19
2023-03-01T18:14:17.632Z,99988.84
2023-03-01T18:16:44.824Z,99976.22
2023-03-01T18:19:13.054Z,99974.59
2023-03-01T18:21:40.196Z,99977.59
2023-03-01T18:24:07.261Z,99977.84
2023-03-01T18:26:34.464Z,99964.72
2023-03-01T18:29:03.522Z,99980.06
2023-03-01T18:31:33.667Z,99979.22
2023-03-01T18:34:01.370Z,99971.84
2023-03-01T18:36:32.067Z,99956.50
2023-03-01T18:38:59.548Z,99973.47
2023-03-01T18:41:28.585Z,99972.66
2023-03-01T18:43:57.165Z,99977.06
2023-03-01T18:46:24.713Z,99979.47
2023-03-01T18:48:53.235Z,99977.28
2023-03-01T18:51:23.900Z,99976.22
2023-03-01T18:53:51.284Z,99969.94
2023-03-01T18:56:18.192Z,99970.22
2023-03-01T18:58:45.390Z,99967.50
2023-03-01T19:01:17.557Z,99967.50
2023-03-01T19:03:44.809Z,99969.41
2023-03-01T19:06:11.983Z,99971.88
2023-03-01T19:08:40.942Z,99978.44
2023-03-01T19:11:09.570Z,99982.25
2023-03-01T19:13:38.526Z,99982.81
2023-03-01T19:16:14.422Z,99981.75
2023-03-01T19:18:50.460Z,99982.25
2023-03-01T19:21:19.865Z,99993.19
2023-03-01T19:23:48.833Z,99988.84
2023-03-01T19:26:18.918Z,99955.47
2023-03-01T19:28:46.509Z,99976.78
2023-03-01T19:31:19.857Z,99978.69
2023-03-01T19:33:47.334Z,99975.41
2023-03-01T19:36:14.887Z,99978.69
2023-03-01T19:38:43.472Z,99980.63
2023-03-01T19:41:14.860Z,99979.28
2023-03-01T19:43:43.691Z,99978.47
2023-03-01T19:46:11.514Z,99990.75
2023-03-01T19:48:40.630Z,99991.03
2023-03-01T19:51:08.894Z,99986.91
2023-03-01T19:53:37.807Z,99989.41
2023-03-01T19:56:05.433Z,99998.94
2023-03-01T19:58:33.451Z,99999.78
2023-03-01T20:01:01.159Z,99985.00
2023-03-01T20:03:33.553Z,99989.06
2023-03-01T20:06:07.404Z,99965.28
2023-03-01T20:08:34.440Z,99971.28
2023-03-01T20:11:06.555Z,99963.88
2023-03-01T20:13:34.380Z,99976.50
2023-03-01T20:16:01.288Z,99976.22
2023-03-01T20:18:28.782Z,99971.28
2023-03-01T20:20:56.098Z,99978.97
2023-03-01T20:23:23.021Z,99968.03
2023-03-01T20:25:50.475Z,99978.69
2023-03-01T20:28:19.310Z,99969.09
2023-03-01T20:30:46.313Z,99960.38
2023-03-01T20:33:13.515Z,99970.19
2023-03-01T20:35:42.530Z,99951.59
2023-03-01T20:38:09.694Z,99977.28
2023-03-01T20:40:37.689Z,99966.38
2023-03-01T20:43:04.551Z,99968.28
2023-03-01T20:45:31.870Z,99974.00
2023-03-01T20:47:58.683Z,99976.19
2023-03-01T20:50:25.541Z,99967.44
2023-03-01T20:52:52.537Z,99968.53
2023-03-01T20:55:19.530Z,99975.66
2023-03-01T20:57:46.379Z,99975.09
2023-03-01T21:00:13.578Z,99965.81
2023-03-01T21:02:40.526Z,99975.03
2023-03-01T21:05:07.723Z,99977.56
2023-03-01T21:07:34.578Z,99963.84
2023-03-01T21:10:01.517Z,99946.00
2023-03-01T21:12:28.906Z,99974.00
2023-03-01T21:14:56.004Z,99984.97
2023-03-01T21:17:23.079Z,99956.47
2023-03-01T21:19:50.813Z,99960.84
2023-03-01T21:22:18.159Z,99965.81
2023-03-01T21:24:45.217Z,99980.56
2023-03-01T21:27:12.101Z,99969.34
2023-03-01T21:29:41.061Z,99962.00
2023-03-01T21:32:09.732Z,99927.50
2023-03-01T21:34:37.423Z,99961.44
2023-03-01T21:37:05.875Z,99952.41
2023-03-01T21:39:33.838Z,99969.91
2023-03-01T21:42:04.906Z,99972.66
2023-03-01T21:44:33.002Z,99959.53
2023-03-01T21:46:59.795Z,99970.75
2023-03-01T21:49:27.075Z,99968.28
2023-03-01T21:51:54.453Z,99971.84
2023-03-01T21:54:22.043Z,99971.03
2023-03-01T21:56:49.608Z,99972.09
2023-03-01T21:59:22.409Z,99968.84
2023-03-01T22:01:50.938Z,99972.41
2023-03-01T22:04:18.717Z,99976.75
2023-03-01T22:06:47.246Z,99972.94
2023-03-01T22:09:24.811Z,99968.84
2023-03-01T22:12:02.609Z,99969.41
2023-03-01T22:14:31.500Z,99964.47
2023-03-01T22:16:58.670Z,99969.66
2023-03-01T22:19:28.815Z,99956.78
2023-03-01T22:21:55.727Z,99950.78
2023-03-01T22:24:25.174Z,99966.38
2023-03-01T22:26:53.100Z,99965.59
2023-03-01T22:29:26.567Z,99958.19
2023-03-01T22:31:55.323Z,99964.47
2023-03-01T22:34:24.597Z,99964.75
2023-03-01T22:36:51.943Z,99957.66
2023-03-01T22:39:21.163Z,99936.31
2023-03-01T22:41:49.829Z,99959.00
2023-03-01T22:44:22.291Z,99957.91
2023-03-01T22:46:49.911Z,99946.13
2023-03-01T22:49:18.967Z,99958.19
2023-03-01T22:51:47.784Z,99962.56
2023-03-01T22:54:16.498Z,99966.38
2023-03-01T22:56:43.893Z,99970.22
2023-03-01T22:59:14.608Z,99970.78
2023-03-01T23:01:46.453Z,99971.31
2023-03-01T23:04:15.335Z,99952.16
2023-03-01T23:06:53.980Z,99968.59
2023-03-01T23:09:31.425Z,99960.94
2023-03-01T23:12:00.203Z,99965.59
2023-03-01T23:14:30.875Z,99959.84
2023-03-01T23:16:58.655Z,99948.34
2023-03-01T23:19:25.580Z,99962.03
2023-03-01T23:21:54.665Z,99961.47
2023-03-01T23:24:24.037Z,99968.59
2023-03-01T23:26:53.489Z,99964.72
2023-03-01T23:29:20.896Z,99968.59
2023-03-01T23:31:48.616Z,99965.28
2023-03-01T23:34:15.464Z,99961.72
2023-03-01T23:36:45.056Z,99972.41
2023-03-01T23:39:13.824Z,99964.44
2023-03-01T23:41:41.107Z,99969.66
2023-03-01T23:44:08.095Z,99971.28
2023-03-01T23:46:37.422Z,99976.47
2023-03-01T23:49:04.724Z,99965.53
2023-03-01T23:51:31.715Z,99962.81
2023-03-01T23:54:01.649Z,99957.91
2023-03-01T23:56:35.404Z,99945.31
2023-03-01T23:59:23.636Z,99958.97
